UGC weather

Urgench Airport
Urgench, Xorazm, Uzbekistan

Public forecast

Using degrees Celsius for public forecast. Weather courtesy of forecast.io.

Current aviation weather report (METAR) for Urgench Airport

Retrieved 2020/06/06 08:00 UTC (15 minutes ago):

UTNU 060800Z 03010KT CAVOK 33/01 Q1013 R31/CLRD70 NOSIG

Aviation forecast (TAF) for Urgench Airport

Retrieved 2020/06/06 06:09 UTC (2 hours ago):

TAF UTNU 060500Z 0606/0706 04010G20KT 8000 SCT050CB BKN100 TEMPO 0606/0612 07018G28KT 2200 -TSRA DS BKN020CB OVC100